< < Back
Terminal Aerodrome Forecast


Current Version              Previous Versions:   1  2  3  4  5  6  7  8  9  

Terminal Aerodrome Forecast

493
FTUS42 KGSP 101937 AAA
TAFAVL
TAF AMD
KAVL 101937Z 1020/1118 35013G23KT P6SM FEW050
     FM110900 33009KT P6SM SCT040=

Latest METAR

617
SAUS70 KWBC 110000 RRB
MTRAVL
METAR KAVL 102354Z 34009KT 10SM FEW110 M05/M18 A2996 RMK AO2 SLP167
T10501178 11022 21050 53017


USA.gov is the U.S. government's official web portal to all federal, state and local government web resources and services.